Time,TemperatureF,DewpointF,PressureIn,WindDirection,WindDirectionDegrees,WindSpeedMPH,WindSpeedGustMPH,Humidity,HourlyPrecipIn,Conditions,Clouds,dailyrainin,SolarRadiationWatts/m^2,SoftwareType,DateUTC
2013-03-24 00:12:00,7.0,-3.0,-100.00,West,270,12.0,17.0,63,0.00,,,0.00,0.000000,,2013-03-24 06:12:00,
2013-03-24 00:22:00,7.0,-3.0,-100.00,West,270,12.0,17.0,63,0.00,,,0.00,0.000000,,2013-03-24 06:22:00,
2013-03-24 00:32:00,7.0,-3.0,-100.00,West,270,12.0,17.0,63,0.00,,,0.00,0.000000,,2013-03-24 06:32:00,
2013-03-24 00:42:00,7.0,-3.0,-100.00,West,270,12.0,17.0,63,0.00,,,0.00,0.000000,,2013-03-24 06:42:00,
2013-03-24 01:12:00,6.0,-4.0,-100.00,WSW,244,10.0,17.0,62,0.00,,,0.00,0.000000,,2013-03-24 07:12:00,
2013-03-24 01:22:00,6.0,-4.0,-100.00,WSW,244,10.0,17.0,62,0.00,,,0.00,0.000000,,2013-03-24 07:22:00,
2013-03-24 01:32:00,6.0,-4.0,-100.00,WSW,244,10.0,17.0,62,0.00,,,0.00,0.000000,,2013-03-24 07:32:00,
2013-03-24 01:42:00,6.0,-4.0,-100.00,WSW,244,10.0,17.0,62,0.00,,,0.00,0.000000,,2013-03-24 07:42:00,
2013-03-24 02:12:00,4.0,-3.0,-100.00,SSW,203,5.0,10.0,72,0.00,,,0.00,0.000000,,2013-03-24 08:12:00,
2013-03-24 02:22:00,4.0,-3.0,-100.00,SSW,203,5.0,10.0,72,0.00,,,0.00,0.000000,,2013-03-24 08:22:00,
2013-03-24 02:32:00,4.0,-3.0,-100.00,SSW,203,5.0,10.0,72,0.00,,,0.00,0.000000,,2013-03-24 08:32:00,
2013-03-24 02:41:00,4.0,-3.0,-100.00,SSW,203,5.0,10.0,72,0.00,,,0.00,0.000000,,2013-03-24 08:41:00,
2013-03-24 03:12:00,2.0,-4.0,-100.00,SW,234,7.0,10.0,77,0.00,,,0.00,0.000000,,2013-03-24 09:12:00,
2013-03-24 03:22:00,2.0,-4.0,-100.00,SW,234,7.0,10.0,77,0.00,,,0.00,0.000000,,2013-03-24 09:22:00,
2013-03-24 03:33:00,2.0,-4.0,-100.00,SW,234,7.0,10.0,77,0.00,,,0.00,0.000000,,2013-03-24 09:33:00,
2013-03-24 03:42:00,2.0,-4.0,-100.00,SW,234,7.0,10.0,77,0.00,,,0.00,0.000000,,2013-03-24 09:42:00,
2013-03-24 04:12:00,1.0,-5.0,-100.00,SW,230,6.0,9.0,75,0.00,,,0.00,0.000000,,2013-03-24 10:12:00,
2013-03-24 04:22:00,1.0,-5.0,-100.00,SW,230,6.0,9.0,75,0.00,,,0.00,0.000000,,2013-03-24 10:22:00,
2013-03-24 04:32:00,1.0,-5.0,-100.00,SW,230,6.0,9.0,75,0.00,,,0.00,0.000000,,2013-03-24 10:32:00,
2013-03-24 04:42:00,1.0,-5.0,-100.00,SW,230,6.0,9.0,75,0.00,,,0.00,0.000000,,2013-03-24 10:42:00,
2013-03-24 05:12:00,2.0,-5.0,-100.00,SW,229,7.0,9.0,71,0.00,,,0.00,0.000000,,2013-03-24 11:12:00,
2013-03-24 05:22:00,2.0,-5.0,-100.00,SW,229,7.0,9.0,71,0.00,,,0.00,0.000000,,2013-03-24 11:22:00,
2013-03-24 05:32:00,2.0,-5.0,-100.00,SW,229,7.0,9.0,71,0.00,,,0.00,0.000000,,2013-03-24 11:32:00,
2013-03-24 05:42:00,2.0,-5.0,-100.00,SW,229,7.0,9.0,71,0.00,,,0.00,0.000000,,2013-03-24 11:42:00,
2013-03-24 06:12:00,2.0,-6.0,-100.00,WSW,242,0.0,8.0,67,0.00,,,0.00,0.000000,,2013-03-24 12:12:00,
2013-03-24 06:22:00,2.0,-6.0,-100.00,WSW,242,0.0,8.0,67,0.00,,,0.00,0.000000,,2013-03-24 12:22:00,
2013-03-24 06:32:00,2.0,-6.0,-100.00,WSW,242,0.0,8.0,67,0.00,,,0.00,0.000000,,2013-03-24 12:32:00,
2013-03-24 06:42:00,2.0,-6.0,-100.00,WSW,242,0.0,8.0,67,0.00,,,0.00,0.000000,,2013-03-24 12:42:00,
2013-03-24 07:12:00,2.0,-5.0,-100.00,West,268,1.0,6.0,71,0.00,,,0.00,0.000000,,2013-03-24 13:12:00,
2013-03-24 07:22:00,2.0,-5.0,-100.00,West,268,1.0,6.0,71,0.00,,,0.00,0.000000,,2013-03-24 13:22:00,
2013-03-24 07:32:00,2.0,-5.0,-100.00,West,268,1.0,6.0,71,0.00,,,0.00,0.000000,,2013-03-24 13:32:00,
2013-03-24 07:42:00,2.0,-5.0,-100.00,West,268,1.0,6.0,71,0.00,,,0.00,0.000000,,2013-03-24 13:42:00,
2013-03-24 08:12:00,3.0,-3.0,-100.00,SW,227,0.0,3.0,74,0.00,,,0.00,19.000000,,2013-03-24 14:12:00,
2013-03-24 08:22:00,3.0,-3.0,-100.00,SW,227,0.0,3.0,74,0.00,,,0.00,19.000000,,2013-03-24 14:22:00,
2013-03-24 08:32:00,3.0,-3.0,-100.00,SW,227,0.0,3.0,74,0.00,,,0.00,19.000000,,2013-03-24 14:32:00,
2013-03-24 08:42:00,3.0,-3.0,-100.00,SW,227,0.0,3.0,74,0.00,,,0.00,19.000000,,2013-03-24 14:42:00,
2013-03-24 09:12:00,14.0,1.0,-100.00,South,189,1.0,7.0,55,0.00,,,0.00,102.000000,,2013-03-24 15:12:00,
2013-03-24 09:43:00,14.0,1.0,-100.00,South,189,1.0,7.0,55,0.00,,,0.00,102.000000,,2013-03-24 15:43:00,
2013-03-24 10:12:00,18.0,2.0,-100.00,NW,304,3.0,10.0,49,0.00,,,0.00,290.000000,,2013-03-24 16:12:00,
2013-03-24 10:22:00,18.0,2.0,-100.00,NW,304,3.0,10.0,49,0.00,,,0.00,290.000000,,2013-03-24 16:22:00,
2013-03-24 10:42:00,18.0,2.0,-100.00,NW,304,3.0,10.0,49,0.00,,,0.00,290.000000,,2013-03-24 16:42:00,
2013-03-24 11:12:00,21.0,4.0,-100.00,NE,42,4.0,10.0,47,0.00,,,0.00,729.000000,,2013-03-24 17:12:00,
2013-03-24 11:22:00,21.0,4.0,-100.00,NE,42,4.0,10.0,47,0.00,,,0.00,729.000000,,2013-03-24 17:22:00,
2013-03-24 11:32:00,21.0,4.0,-100.00,NE,42,4.0,10.0,47,0.00,,,0.00,729.000000,,2013-03-24 17:32:00,
2013-03-24 11:42:00,21.0,4.0,-100.00,NE,42,4.0,10.0,47,0.00,,,0.00,729.000000,,2013-03-24 17:42:00,
2013-03-24 12:12:00,22.0,3.0,-100.00,NW,312,9.0,16.0,43,0.00,,,0.00,909.000000,,2013-03-24 18:12:00,
2013-03-24 12:22:00,22.0,3.0,-100.00,NW,312,9.0,16.0,43,0.00,,,0.00,909.000000,,2013-03-24 18:22:00,
2013-03-24 12:32:00,22.0,3.0,-100.00,NW,312,9.0,16.0,43,0.00,,,0.00,909.000000,,2013-03-24 18:32:00,
2013-03-24 12:42:00,22.0,3.0,-100.00,NW,312,9.0,16.0,43,0.00,,,0.00,909.000000,,2013-03-24 18:42:00,
2013-03-24 13:12:00,22.0,2.0,-100.00,WNW,296,11.0,21.0,42,0.01,,,0.01,1088.000000,,2013-03-24 19:12:00,
2013-03-24 13:22:00,22.0,2.0,-100.00,WNW,296,11.0,21.0,42,0.01,,,0.01,1088.000000,,2013-03-24 19:22:00,
2013-03-24 13:32:00,22.0,2.0,-100.00,WNW,296,11.0,21.0,42,0.01,,,0.01,1088.000000,,2013-03-24 19:32:00,
2013-03-24 13:42:00,22.0,2.0,-100.00,WNW,296,11.0,21.0,42,0.01,,,0.01,1088.000000,,2013-03-24 19:42:00,
2013-03-24 14:12:00,23.0,3.0,-100.00,WNW,296,14.0,25.0,42,0.00,,,0.01,1126.000000,,2013-03-24 20:12:00,
2013-03-24 14:22:00,23.0,3.0,-100.00,WNW,296,14.0,25.0,42,0.00,,,0.01,1126.000000,,2013-03-24 20:22:00,
2013-03-24 14:32:00,23.0,3.0,-100.00,WNW,296,14.0,25.0,42,0.00,,,0.01,1126.000000,,2013-03-24 20:32:00,
2013-03-24 14:42:00,23.0,3.0,-100.00,WNW,296,14.0,25.0,42,0.00,,,0.01,1126.000000,,2013-03-24 20:42:00,
2013-03-24 15:12:00,22.0,3.0,-100.00,WNW,296,17.0,33.0,44,0.00,,,0.01,1070.000000,,2013-03-24 21:12:00,
2013-03-24 15:22:00,22.0,3.0,-100.00,WNW,296,17.0,33.0,44,0.00,,,0.01,1070.000000,,2013-03-24 21:22:00,
2013-03-24 15:32:00,22.0,3.0,-100.00,WNW,296,17.0,33.0,44,0.00,,,0.01,1070.000000,,2013-03-24 21:32:00,
2013-03-24 15:43:00,22.0,3.0,-100.00,WNW,296,17.0,33.0,44,0.00,,,0.01,1070.000000,,2013-03-24 21:43:00,
2013-03-24 16:13:00,22.0,3.0,-100.00,WNW,289,17.0,39.0,44,0.00,,,0.01,954.000000,,2013-03-24 22:13:00,
2013-03-24 16:22:00,22.0,3.0,-100.00,WNW,289,17.0,39.0,44,0.00,,,0.01,954.000000,,2013-03-24 22:22:00,
2013-03-24 16:33:00,22.0,3.0,-100.00,WNW,289,17.0,39.0,44,0.00,,,0.01,954.000000,,2013-03-24 22:33:00,
2013-03-24 16:42:00,22.0,3.0,-100.00,WNW,289,17.0,39.0,44,0.00,,,0.01,954.000000,,2013-03-24 22:42:00,
2013-03-24 17:12:00,21.0,4.0,-100.00,WNW,297,12.0,31.0,46,0.00,,,0.01,674.000000,,2013-03-24 23:12:00,
2013-03-24 17:22:00,21.0,4.0,-100.00,WNW,297,12.0,31.0,46,0.00,,,0.01,674.000000,,2013-03-24 23:22:00,
2013-03-24 17:32:00,21.0,4.0,-100.00,WNW,297,12.0,31.0,46,0.00,,,0.01,674.000000,,2013-03-24 23:32:00,
2013-03-24 17:42:00,21.0,4.0,-100.00,WNW,297,12.0,31.0,46,0.00,,,0.01,674.000000,,2013-03-24 23:42:00,
2013-03-24 18:12:00,19.0,-2.0,-100.00,ESE,116,12.0,31.0,39,0.00,,,0.01,361.000000,,2013-03-25 00:12:00,
2013-03-24 18:22:00,19.0,-2.0,-100.00,ESE,116,12.0,31.0,39,0.00,,,0.01,361.000000,,2013-03-25 00:22:00,
2013-03-24 18:32:00,19.0,-2.0,-100.00,ESE,116,12.0,31.0,39,0.00,,,0.01,361.000000,,2013-03-25 00:32:00,
2013-03-24 18:42:00,19.0,-2.0,-100.00,ESE,116,12.0,31.0,39,0.00,,,0.01,361.000000,,2013-03-25 00:42:00,
2013-03-24 19:12:00,16.0,-5.0,-100.00,NNW,345,7.0,25.0,39,0.00,,,0.01,118.000000,,2013-03-25 01:12:00,
2013-03-24 19:22:00,16.0,-5.0,-100.00,NNW,345,7.0,25.0,39,0.00,,,0.01,118.000000,,2013-03-25 01:22:00,
2013-03-24 19:32:00,16.0,-5.0,-100.00,NNW,345,7.0,25.0,39,0.00,,,0.01,118.000000,,2013-03-25 01:32:00,
2013-03-24 19:42:00,16.0,-5.0,-100.00,NNW,345,7.0,25.0,39,0.00,,,0.01,118.000000,,2013-03-25 01:42:00,
2013-03-24 20:12:00,12.0,-2.0,-100.00,NW,322,5.0,17.0,52,0.00,,,0.01,19.000000,,2013-03-25 02:12:00,
2013-03-24 20:22:00,12.0,-2.0,-100.00,NW,322,5.0,17.0,52,0.00,,,0.01,19.000000,,2013-03-25 02:22:00,
2013-03-24 20:42:00,12.0,-2.0,-100.00,NW,322,5.0,17.0,52,0.00,,,0.01,19.000000,,2013-03-25 02:42:00,
2013-03-24 21:12:00,11.0,-3.0,-100.00,South,189,2.0,12.0,53,0.00,,,0.01,0.000000,,2013-03-25 03:12:00,
2013-03-24 21:22:00,11.0,-3.0,-100.00,South,189,2.0,12.0,53,0.00,,,0.01,0.000000,,2013-03-25 03:22:00,
2013-03-24 21:33:00,11.0,-3.0,-100.00,South,189,2.0,12.0,53,0.00,,,0.01,0.000000,,2013-03-25 03:33:00,
2013-03-24 21:42:00,11.0,-3.0,-100.00,South,189,2.0,12.0,53,0.00,,,0.01,0.000000,,2013-03-25 03:42:00,
2013-03-24 22:12:00,10.0,-3.0,-100.00,NW,318,4.0,8.0,55,0.00,,,0.01,0.000000,,2013-03-25 04:12:00,
2013-03-24 22:22:00,10.0,-3.0,-100.00,NW,318,4.0,8.0,55,0.00,,,0.01,0.000000,,2013-03-25 04:22:00,
2013-03-24 22:32:00,10.0,-3.0,-100.00,NW,318,4.0,8.0,55,0.00,,,0.01,0.000000,,2013-03-25 04:32:00,
2013-03-24 22:42:00,10.0,-3.0,-100.00,NW,318,4.0,8.0,55,0.00,,,0.01,0.000000,,2013-03-25 04:42:00,
2013-03-24 23:12:00,9.0,-4.0,-100.00,WNW,286,4.0,9.0,54,0.00,,,0.01,0.000000,,2013-03-25 05:12:00,
2013-03-24 23:22:00,9.0,-4.0,-100.00,WNW,286,4.0,9.0,54,0.00,,,0.01,0.000000,,2013-03-25 05:22:00,
2013-03-24 23:32:00,9.0,-4.0,-100.00,WNW,286,4.0,9.0,54,0.00,,,0.01,0.000000,,2013-03-25 05:32:00,
2013-03-24 23:42:00,9.0,-4.0,-100.00,WNW,286,4.0,9.0,54,0.00,,,0.01,0.000000,,2013-03-25 05:42:00,